createdAt,value
2018-02-20T00:00:55.102Z,4.67
2018-02-20T00:01:57.569Z,4.50
2018-02-20T00:03:00.058Z,4.77
2018-02-20T00:04:02.545Z,4.57
2018-02-20T00:05:05.038Z,4.07
2018-02-20T00:06:07.526Z,4.32
2018-02-20T00:07:10.015Z,4.33
2018-02-20T00:08:12.486Z,4.97
2018-02-20T00:09:14.960Z,4.10
2018-02-20T00:10:17.426Z,4.50
2018-02-20T00:11:19.918Z,3.73
2018-02-20T00:12:22.412Z,3.78
2018-02-20T00:13:24.894Z,3.70
2018-02-20T00:14:27.388Z,3.75
2018-02-20T00:15:29.851Z,3.73
2018-02-20T00:16:32.313Z,4.23
2018-02-20T00:17:34.797Z,4.20
2018-02-20T00:18:37.281Z,4.00
2018-02-20T00:19:39.747Z,4.20
2018-02-20T00:20:42.241Z,4.10
2018-02-20T00:21:44.711Z,4.53
2018-02-20T00:22:47.174Z,3.83
2018-02-20T00:23:49.643Z,4.07
2018-02-20T00:24:52.121Z,4.00
2018-02-20T00:25:54.590Z,4.70
2018-02-20T00:26:57.065Z,4.10
2018-02-20T00:27:59.539Z,4.75
2018-02-20T00:29:02.017Z,4.00
2018-02-20T00:30:04.483Z,3.53
2018-02-20T00:31:06.951Z,4.00
2018-02-20T00:32:09.442Z,3.75
2018-02-20T00:33:11.925Z,3.57
2018-02-20T00:34:14.404Z,4.00
2018-02-20T00:35:16.885Z,4.37
2018-02-20T00:36:19.370Z,3.55
2018-02-20T00:37:21.871Z,4.07
2018-02-20T00:38:24.346Z,4.20
2018-02-20T00:39:26.811Z,3.60
2018-02-20T00:40:29.296Z,3.90
2018-02-20T00:41:31.770Z,3.60
2018-02-20T00:42:34.244Z,4.00
2018-02-20T00:43:36.722Z,3.50
2018-02-20T00:44:39.204Z,3.35
2018-02-20T00:45:41.673Z,3.80
2018-02-20T00:46:44.154Z,4.57
2018-02-20T00:47:46.618Z,4.10
2018-02-20T00:48:49.092Z,3.77
2018-02-20T00:49:51.577Z,3.83
2018-02-20T00:50:54.038Z,3.83
2018-02-20T00:51:56.512Z,4.00
2018-02-20T00:52:58.978Z,3.58
2018-02-20T00:54:01.472Z,3.85
2018-02-20T00:55:03.953Z,3.70
2018-02-20T00:56:06.421Z,3.73
2018-02-20T00:57:08.887Z,3.70
2018-02-20T00:58:11.341Z,4.00
2018-02-20T00:59:13.808Z,3.83
2018-02-20T01:00:16.288Z,3.53
2018-02-20T01:01:18.768Z,3.77
2018-02-20T01:02:21.234Z,3.78
2018-02-20T01:03:23.720Z,3.80
2018-02-20T01:04:26.200Z,3.60
2018-02-20T01:05:28.678Z,3.42
2018-02-20T01:06:31.170Z,4.15
2018-02-20T01:07:33.647Z,3.42
2018-02-20T01:08:36.121Z,3.53
2018-02-20T01:09:38.604Z,3.83
2018-02-20T01:10:41.085Z,3.73
2018-02-20T01:11:43.568Z,4.00
2018-02-20T01:12:46.034Z,4.30
2018-02-20T01:13:48.518Z,3.23
2018-02-20T01:14:51.000Z,3.20
2018-02-20T01:15:53.454Z,3.50
2018-02-20T01:16:55.928Z,3.30
2018-02-20T01:17:58.420Z,4.00
2018-02-20T01:19:00.886Z,3.23
2018-02-20T01:20:03.358Z,3.67
2018-02-20T01:21:05.826Z,3.17
2018-02-20T01:22:08.334Z,3.33
2018-02-20T01:23:10.808Z,3.58
2018-02-20T01:24:13.296Z,3.40
2018-02-20T01:25:15.770Z,3.70
2018-02-20T01:26:18.237Z,3.28
2018-02-20T01:27:20.710Z,3.78
2018-02-20T01:28:23.186Z,3.25
2018-02-20T01:29:25.692Z,3.60
2018-02-20T01:30:28.154Z,3.67
2018-02-20T01:58:37.442Z,3.47
2018-02-20T01:59:39.932Z,3.40
2018-02-20T02:00:42.421Z,3.37
2018-02-20T02:01:44.896Z,3.58
2018-02-20T02:02:47.374Z,2.87
2018-02-20T02:03:49.865Z,3.60
2018-02-20T02:04:52.338Z,3.20
2018-02-20T02:05:54.810Z,4.10
2018-02-20T02:06:57.288Z,3.40
2018-02-20T02:07:59.755Z,3.30
2018-02-20T02:09:02.235Z,3.87
2018-02-20T02:10:04.725Z,3.15
2018-02-20T02:11:07.217Z,4.00
2018-02-20T02:12:09.701Z,3.40
2018-02-20T02:13:12.221Z,3.10
2018-02-20T02:14:14.687Z,3.33
2018-02-20T02:54:16.944Z,3.45
2018-02-20T02:55:19.416Z,3.10
2018-02-20T02:56:21.895Z,3.03
2018-02-20T02:57:24.369Z,3.03
2018-02-20T02:58:26.852Z,2.60
2018-02-20T02:59:29.336Z,3.20
2018-02-20T03:00:31.826Z,2.65
2018-02-20T03:01:34.303Z,2.42
2018-02-20T03:02:36.775Z,3.40
2018-02-20T03:03:39.251Z,4.37
2018-02-20T03:04:41.738Z,2.60
2018-02-20T03:05:44.239Z,2.33
2018-02-20T03:06:46.726Z,2.75
2018-02-20T03:07:49.227Z,2.60
2018-02-20T03:08:51.707Z,3.15
2018-02-20T03:09:54.235Z,2.87
2018-02-20T03:10:56.718Z,2.90
2018-02-20T03:11:59.209Z,2.97
2018-02-20T03:13:01.699Z,3.10
2018-02-20T03:14:04.171Z,2.80
2018-02-20T03:15:06.649Z,3.28
2018-02-20T03:16:09.139Z,2.60
2018-02-20T03:17:11.615Z,2.90
2018-02-20T03:18:14.101Z,2.95
2018-02-20T03:19:16.652Z,2.92
2018-02-20T03:20:19.138Z,2.65
2018-02-20T03:21:21.641Z,3.05
2018-02-20T03:22:24.131Z,2.90
2018-02-20T03:23:26.611Z,2.53
2018-02-20T03:24:29.101Z,2.70
2018-02-20T03:25:31.592Z,2.80
2018-02-20T03:26:34.100Z,2.87
2018-02-20T03:27:36.589Z,3.47
2018-02-20T03:28:39.076Z,3.00
2018-02-20T03:29:41.570Z,2.83
2018-02-20T03:30:44.040Z,2.65
2018-02-20T03:31:46.521Z,2.63
2018-02-20T03:32:49.005Z,2.85
2018-02-20T03:33:51.483Z,3.00
2018-02-20T03:34:54.010Z,2.90
2018-02-20T03:35:56.467Z,2.70
2018-02-20T03:36:58.958Z,2.90
2018-02-20T03:38:01.457Z,3.10
2018-02-20T03:39:03.940Z,2.75
2018-02-20T03:40:06.437Z,2.53
2018-02-20T03:41:08.914Z,3.20
2018-02-20T03:42:11.384Z,2.50
2018-02-20T03:43:13.873Z,3.05
2018-02-20T03:44:16.355Z,2.90
2018-02-20T03:45:18.845Z,2.90
2018-02-20T03:46:21.352Z,2.78
2018-02-20T03:47:23.823Z,2.80
2018-02-20T03:48:26.325Z,2.78
2018-02-20T03:49:28.811Z,2.42
2018-02-20T03:50:31.322Z,2.83
2018-02-20T03:51:33.791Z,3.28
2018-02-20T03:52:36.286Z,2.80
2018-02-20T03:53:38.769Z,2.50
2018-02-20T03:54:41.258Z,2.90
2018-02-20T03:55:43.762Z,2.50
2018-02-20T03:56:46.238Z,3.07
2018-02-20T03:57:48.741Z,2.62
2018-02-20T03:58:51.215Z,2.40
2018-02-20T03:59:53.701Z,2.58
2018-02-20T04:00:56.214Z,2.85
2018-02-20T04:01:58.692Z,2.65
2018-02-20T04:03:01.182Z,2.17
2018-02-20T04:04:03.678Z,2.80
2018-02-20T04:05:06.165Z,2.50
2018-02-20T04:06:08.661Z,2.65
2018-02-20T04:07:11.146Z,2.28
2018-02-20T04:08:13.619Z,2.42
2018-02-20T04:09:16.105Z,2.08
2018-02-20T04:10:18.579Z,2.65
2018-02-20T04:11:21.073Z,2.80
2018-02-20T04:12:23.650Z,3.00
2018-02-20T04:13:26.119Z,2.67
2018-02-20T04:14:28.613Z,2.67
2018-02-20T04:15:31.086Z,2.28
2018-02-20T04:16:33.577Z,2.50
2018-02-20T04:17:36.081Z,2.40
2018-02-20T04:18:38.558Z,2.35
2018-02-20T04:19:41.049Z,2.72
2018-02-20T04:20:43.537Z,2.30
2018-02-20T04:21:46.021Z,2.15
2018-02-20T04:22:48.491Z,2.15
2018-02-20T04:23:50.986Z,2.70
2018-02-20T04:24:53.467Z,2.40
2018-02-20T04:25:55.962Z,2.55
2018-02-20T04:26:58.431Z,2.50
2018-02-20T04:28:00.911Z,2.20
2018-02-20T04:29:03.398Z,2.60
2018-02-20T04:30:05.889Z,2.87
2018-02-20T04:31:08.379Z,2.70
2018-02-20T04:32:10.869Z,2.60
2018-02-20T04:33:13.353Z,2.40
2018-02-20T04:34:15.845Z,2.47
2018-02-20T04:35:18.329Z,2.50
2018-02-20T04:36:20.817Z,2.30
2018-02-20T04:37:23.289Z,2.30
2018-02-20T04:38:25.763Z,2.00
2018-02-20T04:39:28.235Z,2.30
2018-02-20T04:40:30.714Z,2.87
2018-02-20T04:41:33.191Z,3.15
2018-02-20T04:42:35.663Z,3.00
2018-02-20T04:43:38.145Z,2.65
2018-02-20T04:44:40.635Z,2.47
2018-02-20T04:45:43.129Z,2.35
2018-02-20T04:46:45.603Z,2.37
2018-02-20T04:47:48.075Z,2.60
2018-02-20T04:48:50.561Z,2.30
2018-02-20T04:49:53.037Z,2.50
2018-02-20T04:50:55.522Z,2.58
2018-02-20T04:51:57.992Z,2.30
2018-02-20T04:53:00.477Z,2.33
2018-02-20T04:54:02.953Z,2.50
2018-02-20T04:55:05.427Z,2.40
2018-02-20T04:56:07.898Z,2.70
2018-02-20T04:57:10.382Z,2.55
2018-02-20T04:58:12.877Z,2.10
2018-02-20T04:59:15.357Z,2.83
2018-02-20T05:00:17.835Z,2.67
2018-02-20T05:01:20.332Z,2.53
2018-02-20T05:02:22.857Z,3.20
2018-02-20T05:03:25.335Z,2.50
2018-02-20T05:04:27.802Z,2.20
2018-02-20T05:05:30.289Z,2.83
2018-02-20T05:06:32.768Z,2.60
2018-02-20T05:07:35.257Z,2.35
2018-02-20T05:08:37.735Z,2.60
2018-02-20T05:09:40.206Z,1.98
2018-02-20T05:10:42.698Z,2.72
2018-02-20T05:11:45.174Z,2.03
2018-02-20T05:12:47.662Z,2.70
2018-02-20T05:13:50.140Z,2.65
2018-02-20T05:14:52.611Z,2.33
2018-02-20T05:15:55.103Z,2.15
2018-02-20T05:16:57.579Z,2.90
2018-02-20T05:18:00.069Z,2.53
2018-02-20T05:19:02.551Z,2.55
2018-02-20T05:20:05.024Z,2.42
2018-02-20T05:21:07.499Z,1.92
2018-02-20T05:22:10.013Z,2.22
2018-02-20T05:23:12.482Z,2.53
2018-02-20T05:24:14.972Z,2.10
2018-02-20T05:25:17.468Z,1.98
2018-02-20T05:26:19.956Z,2.17
2018-02-20T05:27:22.455Z,2.15
2018-02-20T05:28:24.927Z,2.33
2018-02-20T05:29:27.403Z,2.65
2018-02-20T05:30:29.922Z,2.42
2018-02-20T05:31:32.418Z,2.30
2018-02-20T05:32:34.892Z,2.40
2018-02-20T05:33:37.381Z,2.40
2018-02-20T05:34:39.855Z,2.22
2018-02-20T05:35:42.349Z,2.53
2018-02-20T05:36:44.818Z,2.42
2018-02-20T05:37:47.305Z,2.42
2018-02-20T05:38:49.778Z,2.20
2018-02-20T05:39:52.350Z,2.20
2018-02-20T05:40:54.837Z,2.60
2018-02-20T05:41:57.311Z,2.45
2018-02-20T05:42:59.798Z,2.10
2018-02-20T05:44:02.288Z,2.40
2018-02-20T05:45:04.759Z,3.33
2018-02-20T05:46:07.253Z,2.50
2018-02-20T05:47:09.727Z,2.30
2018-02-20T05:48:12.217Z,2.15
2018-02-20T05:49:14.687Z,2.40
2018-02-20T05:50:17.163Z,2.35
2018-02-20T05:51:19.643Z,2.67
2018-02-20T05:52:22.120Z,2.50
2018-02-20T05:53:24.609Z,2.08
2018-02-20T05:54:27.085Z,2.40
2018-02-20T05:55:29.669Z,2.50
2018-02-20T05:56:32.157Z,2.10
2018-02-20T05:57:34.645Z,2.00
2018-02-20T05:58:37.140Z,2.70
2018-02-20T05:59:39.637Z,2.60
2018-02-20T06:00:42.130Z,2.50
2018-02-20T06:01:44.628Z,2.30
2018-02-20T06:02:47.117Z,2.58
2018-02-20T06:03:49.594Z,2.30
2018-02-20T06:04:52.081Z,2.45
2018-02-20T06:05:54.554Z,2.10
2018-02-20T06:06:57.193Z,2.30
2018-02-20T06:07:59.717Z,2.95
2018-02-20T06:09:02.206Z,2.30
2018-02-20T06:10:04.683Z,2.25
2018-02-20T06:11:07.169Z,2.15
2018-02-20T06:12:09.641Z,2.10
2018-02-20T06:13:12.162Z,2.00
2018-02-20T06:14:14.631Z,2.20
2018-02-20T06:15:17.103Z,2.20
2018-02-20T06:16:19.567Z,3.03
2018-02-20T06:17:22.050Z,2.30
2018-02-20T06:18:24.555Z,2.33
2018-02-20T06:19:27.031Z,2.78
2018-02-20T06:20:29.512Z,2.10
2018-02-20T06:21:32.006Z,2.40
2018-02-20T06:22:34.479Z,2.47
2018-02-20T06:23:36.986Z,2.20
2018-02-20T06:24:39.472Z,2.12
2018-02-20T06:25:42.036Z,2.10
2018-02-20T06:26:44.502Z,2.42
2018-02-20T06:27:46.970Z,2.20
2018-02-20T06:28:49.461Z,2.65
2018-02-20T06:29:51.940Z,2.65
2018-02-20T06:30:54.416Z,2.03
2018-02-20T06:31:56.897Z,2.60
2018-02-20T06:32:59.390Z,2.15
2018-02-20T06:34:01.870Z,2.50
2018-02-20T06:35:04.390Z,2.05
2018-02-20T06:36:06.882Z,2.22
2018-02-20T06:37:09.404Z,2.10
2018-02-20T06:38:11.875Z,2.30
2018-02-20T06:39:14.424Z,1.90
2018-02-20T06:40:16.903Z,2.55
2018-02-20T06:41:19.379Z,2.47
2018-02-20T06:42:21.868Z,3.55
2018-02-20T06:43:24.362Z,3.35
2018-02-20T06:44:26.861Z,3.65
2018-02-20T06:45:29.347Z,3.65
2018-02-20T06:46:31.819Z,3.58
2018-02-20T06:47:34.329Z,3.72
2018-02-20T06:48:36.798Z,4.82
2018-02-20T06:49:39.290Z,4.60
2018-02-20T06:50:41.783Z,5.18
2018-02-20T06:51:44.264Z,5.87
2018-02-20T06:52:46.757Z,6.30
2018-02-20T06:53:49.253Z,5.60
2018-02-20T06:54:51.741Z,6.25
2018-02-20T06:55:54.234Z,6.07
2018-02-20T06:56:56.734Z,6.60
2018-02-20T06:57:59.216Z,7.75
2018-02-20T06:59:01.700Z,9.25
2018-02-20T07:00:04.296Z,10.75
2018-02-20T07:01:06.783Z,11.65
2018-02-20T07:02:09.284Z,12.57
2018-02-20T07:03:11.806Z,13.35
2018-02-20T07:04:14.322Z,14.68
2018-02-20T07:05:16.839Z,14.13
2018-02-20T07:06:19.361Z,13.80
2018-02-20T07:07:21.865Z,13.82
2018-02-20T07:08:24.356Z,15.43
2018-02-20T07:09:26.836Z,13.80
2018-02-20T07:10:29.340Z,14.50
2018-02-20T07:11:31.837Z,14.80
2018-02-20T07:12:34.330Z,16.42
2018-02-20T07:13:36.836Z,15.13
2018-02-20T07:14:39.359Z,15.57
2018-02-20T07:15:41.845Z,15.23
2018-02-20T07:16:44.352Z,15.77
2018-02-20T07:17:46.836Z,16.20
2018-02-20T07:18:49.341Z,17.17
2018-02-20T07:19:51.835Z,17.27
2018-02-20T07:20:54.324Z,17.35
2018-02-20T07:21:56.821Z,17.17
2018-02-20T07:22:59.301Z,17.00
2018-02-20T07:24:01.798Z,17.35
2018-02-20T07:25:04.293Z,19.02
2018-02-20T07:26:06.775Z,18.92
2018-02-20T07:27:09.256Z,16.35
2018-02-20T07:28:11.767Z,18.05
2018-02-20T07:29:14.257Z,16.12
2018-02-20T07:30:16.756Z,17.90
2018-02-20T07:31:19.250Z,17.05
2018-02-20T07:32:21.736Z,18.77
2018-02-20T07:33:24.226Z,18.58
2018-02-20T07:34:26.707Z,18.05
2018-02-20T07:35:29.183Z,17.37
2018-02-20T07:36:31.663Z,16.65
2018-02-20T07:37:34.165Z,18.12
2018-02-20T07:38:36.769Z,16.30
2018-02-20T07:39:39.260Z,17.17
2018-02-20T07:40:41.761Z,16.85
2018-02-20T07:41:44.257Z,16.10
2018-02-20T07:42:46.836Z,16.20
2018-02-20T07:43:49.334Z,16.58
2018-02-20T07:44:51.816Z,17.15
2018-02-20T07:45:54.312Z,14.93
2018-02-20T07:46:56.815Z,15.50
2018-02-20T07:47:59.366Z,16.12
2018-02-20T07:49:01.866Z,15.32
2018-02-20T07:50:04.351Z,14.00
2018-02-20T07:51:06.858Z,15.18
2018-02-20T07:52:09.375Z,13.65
2018-02-20T07:53:12.113Z,14.95
2018-02-20T07:54:14.626Z,15.13
2018-02-20T07:55:17.124Z,14.02
2018-02-20T07:56:19.622Z,14.35
2018-02-20T07:57:22.118Z,13.35
2018-02-20T07:58:24.599Z,12.98
2018-02-20T07:59:27.079Z,14.02
2018-02-20T08:00:29.568Z,14.52
2018-02-20T08:01:32.059Z,13.68
2018-02-20T08:02:34.557Z,13.38
2018-02-20T08:03:37.043Z,12.95
2018-02-20T08:04:39.522Z,12.45
2018-02-20T08:05:42.037Z,13.43
2018-02-20T08:06:44.534Z,12.52
2018-02-20T08:07:47.029Z,14.32
2018-02-20T08:08:49.533Z,12.00
2018-02-20T08:09:52.019Z,12.00
2018-02-20T08:10:54.559Z,12.45
2018-02-20T08:11:57.036Z,13.25
2018-02-20T08:12:59.539Z,12.23
2018-02-20T08:14:02.041Z,12.05
2018-02-20T08:15:04.519Z,12.05
2018-02-20T08:16:07.012Z,12.68
2018-02-20T08:17:09.521Z,11.00
2018-02-20T08:18:12.011Z,11.20
2018-02-20T08:19:14.509Z,11.57
2018-02-20T08:20:16.991Z,11.30
2018-02-20T08:21:19.531Z,11.30
2018-02-20T08:22:22.026Z,10.50
2018-02-20T08:23:24.521Z,11.02
2018-02-20T08:24:27.003Z,11.12
2018-02-20T08:25:29.483Z,11.50
2018-02-20T08:26:31.977Z,10.27
2018-02-20T08:27:34.454Z,10.95
2018-02-20T08:28:36.949Z,10.60
2018-02-20T08:29:39.448Z,10.75
2018-02-20T08:30:41.983Z,9.95
2018-02-20T08:31:44.483Z,9.95
2018-02-20T08:32:46.967Z,10.10
2018-02-20T08:33:49.447Z,10.80
2018-02-20T08:34:51.936Z,9.73
2018-02-20T08:35:54.427Z,10.30
2018-02-20T08:36:56.923Z,10.25
2018-02-20T08:37:59.408Z,10.45
2018-02-20T08:39:01.915Z,9.90
2018-02-20T08:40:04.409Z,9.93
2018-02-20T08:41:06.887Z,10.35
2018-02-20T08:42:09.368Z,10.07
2018-02-20T08:43:11.880Z,10.80
2018-02-20T08:44:14.363Z,10.20
2018-02-20T08:45:16.865Z,10.35
2018-02-20T08:46:19.439Z,9.70
2018-02-20T08:47:21.930Z,9.73
2018-02-20T08:48:24.399Z,9.52
2018-02-20T08:49:26.901Z,9.98
2018-02-20T08:50:29.389Z,8.63
2018-02-20T08:51:31.883Z,10.07
2018-02-20T08:52:34.399Z,8.75
2018-02-20T08:53:36.865Z,8.98
2018-02-20T08:54:39.374Z,9.10
2018-02-20T08:55:41.904Z,9.50
2018-02-20T08:56:44.402Z,9.23
2018-02-20T08:57:46.905Z,9.40
2018-02-20T08:58:49.398Z,9.55
2018-02-20T08:59:51.893Z,9.68
2018-02-20T09:00:54.382Z,9.60
2018-02-20T09:01:56.920Z,8.52
2018-02-20T09:02:59.414Z,9.65
2018-02-20T09:04:01.906Z,8.98
2018-02-20T09:05:04.384Z,9.20
2018-02-20T09:06:06.859Z,9.00
2018-02-20T09:07:09.377Z,9.32
2018-02-20T09:08:11.855Z,8.00
2018-02-20T09:09:14.350Z,8.77
2018-02-20T09:10:16.835Z,8.50
2018-02-20T09:11:19.326Z,7.87
2018-02-20T09:12:21.807Z,7.90
2018-02-20T09:13:24.296Z,9.18
2018-02-20T09:14:26.776Z,7.90
2018-02-20T09:15:29.252Z,8.35
2018-02-20T09:16:31.732Z,7.65
2018-02-20T09:17:34.207Z,7.80
2018-02-20T09:18:36.731Z,8.00
2018-02-20T09:19:39.237Z,7.50
2018-02-20T09:20:41.724Z,7.80
2018-02-20T09:21:44.217Z,8.55
2018-02-20T09:22:46.708Z,7.87
2018-02-20T09:23:49.183Z,7.32
2018-02-20T09:24:51.668Z,8.30
2018-02-20T09:25:54.156Z,6.82
2018-02-20T09:26:57.163Z,7.68
2018-02-20T09:27:59.659Z,7.68
2018-02-20T09:29:02.182Z,7.65
2018-02-20T09:30:04.714Z,7.20
2018-02-20T09:31:07.228Z,6.43
2018-02-20T09:32:09.722Z,7.65
2018-02-20T09:33:12.222Z,7.68
2018-02-20T09:34:14.705Z,7.25
2018-02-20T09:35:17.184Z,7.53
2018-02-20T09:36:19.968Z,7.68
2018-02-20T09:37:22.493Z,7.25
2018-02-20T09:38:24.975Z,6.60
2018-02-20T09:39:27.629Z,7.55
2018-02-20T09:40:30.188Z,7.05
2018-02-20T09:41:32.664Z,6.97
2018-02-20T09:42:35.157Z,6.72
2018-02-20T09:43:37.638Z,7.30
2018-02-20T09:44:40.116Z,7.80
2018-02-20T09:45:42.605Z,7.35
2018-02-20T09:46:45.102Z,9.45
2018-02-20T09:47:47.580Z,10.40
2018-02-20T09:48:50.073Z,10.32
2018-02-20T09:49:52.557Z,10.95
2018-02-20T09:50:55.039Z,11.15
2018-02-20T09:51:57.534Z,10.25
2018-02-20T09:53:00.042Z,11.38
2018-02-20T09:54:02.537Z,10.10
2018-02-20T09:55:05.020Z,11.57
2018-02-20T09:56:07.518Z,10.77
2018-02-20T09:57:10.040Z,10.07
2018-02-20T09:58:12.537Z,10.52
2018-02-20T09:59:15.028Z,11.05
2018-02-20T10:00:17.519Z,9.20
2018-02-20T10:01:20.015Z,10.95
2018-02-20T10:02:22.495Z,10.07
2018-02-20T10:03:24.978Z,10.18
2018-02-20T10:04:27.450Z,9.90
2018-02-20T10:05:29.949Z,10.10
2018-02-20T10:06:32.436Z,10.02
2018-02-20T10:07:34.929Z,9.95
2018-02-20T10:08:37.427Z,10.18
2018-02-20T10:09:39.908Z,9.70
2018-02-20T10:10:42.392Z,10.02
2018-02-20T10:11:44.869Z,9.98
2018-02-20T10:12:47.355Z,10.80
2018-02-20T10:13:49.977Z,9.07
2018-02-20T10:14:52.465Z,9.85
2018-02-20T10:15:54.973Z,9.55
2018-02-20T10:16:57.560Z,9.40
2018-02-20T10:18:00.054Z,9.27
2018-02-20T10:19:02.541Z,9.80
2018-02-20T10:20:05.029Z,9.43
2018-02-20T10:21:07.526Z,9.68
2018-02-20T10:22:10.003Z,9.60
2018-02-20T10:23:12.491Z,10.02
2018-02-20T10:24:14.985Z,9.95
2018-02-20T10:25:17.460Z,9.75
2018-02-20T10:26:19.964Z,9.27
2018-02-20T10:27:22.456Z,9.82
2018-02-20T10:28:24.949Z,9.40
2018-02-20T10:29:27.425Z,9.02
2018-02-20T10:30:29.911Z,9.32
2018-02-20T10:31:32.413Z,9.52
2018-02-20T10:32:34.908Z,9.82
2018-02-20T10:33:37.448Z,8.80
2018-02-20T10:34:39.941Z,9.95
2018-02-20T10:35:42.434Z,9.73
2018-02-20T10:36:44.930Z,9.57
2018-02-20T10:37:47.417Z,9.25
2018-02-20T10:38:49.916Z,9.75
2018-02-20T10:39:52.409Z,9.40
2018-02-20T10:40:54.905Z,10.48
2018-02-20T10:41:57.399Z,9.85
2018-02-20T10:42:59.886Z,8.90
2018-02-20T10:44:02.367Z,9.63
2018-02-20T10:45:04.890Z,8.57
2018-02-20T10:46:07.377Z,8.82
2018-02-20T10:47:09.859Z,8.52
2018-02-20T10:48:12.355Z,8.57
2018-02-20T10:49:14.852Z,8.98
2018-02-20T10:50:17.346Z,8.55
2018-02-20T10:51:19.885Z,8.45
2018-02-20T10:52:22.417Z,8.45
2018-02-20T10:53:24.954Z,7.87
2018-02-20T10:54:27.476Z,8.30
2018-02-20T10:55:30.282Z,8.77
2018-02-20T10:56:32.777Z,7.60
2018-02-20T10:57:35.260Z,8.10
2018-02-20T10:58:38.426Z,8.30
2018-02-20T10:59:40.900Z,8.90
2018-02-20T11:00:43.392Z,7.70
2018-02-20T11:01:45.894Z,8.48
2018-02-20T11:02:48.371Z,8.82
2018-02-20T11:03:50.870Z,8.10
2018-02-20T11:04:53.362Z,7.65
2018-02-20T11:05:55.872Z,7.68
2018-02-20T11:06:58.359Z,7.93
2018-02-20T11:08:00.838Z,7.85
2018-02-20T11:09:04.113Z,8.02
2018-02-20T11:10:06.609Z,7.80
2018-02-20T11:11:09.140Z,7.35
2018-02-20T11:12:11.633Z,8.23
2018-02-20T11:13:14.128Z,7.90
2018-02-20T11:14:16.627Z,7.18
2018-02-20T11:15:19.103Z,7.53
2018-02-20T11:16:21.598Z,7.55
2018-02-20T11:17:24.096Z,7.60
2018-02-20T11:18:26.612Z,8.13
2018-02-20T11:19:29.101Z,6.70
2018-02-20T11:20:31.593Z,7.72
2018-02-20T11:21:34.067Z,7.40
2018-02-20T11:22:36.543Z,7.22
2018-02-20T11:23:39.058Z,7.93
2018-02-20T11:24:41.564Z,8.00
2018-02-20T11:25:44.053Z,8.02
2018-02-20T11:26:46.528Z,7.25
2018-02-20T11:27:49.007Z,7.47
2018-02-20T11:28:51.481Z,7.35
2018-02-20T11:29:53.974Z,6.68
2018-02-20T11:30:56.524Z,7.35
2018-02-20T11:31:59.110Z,7.20
2018-02-20T11:33:01.601Z,6.70
2018-02-20T11:34:04.079Z,7.40
2018-02-20T11:35:06.573Z,6.60
2018-02-20T11:36:09.157Z,7.05
2018-02-20T11:37:11.671Z,7.03
2018-02-20T11:38:14.167Z,7.87
2018-02-20T11:39:16.654Z,7.28
2018-02-20T11:40:19.123Z,6.68
2018-02-20T11:41:21.621Z,6.80
2018-02-20T11:42:24.122Z,7.12
2018-02-20T11:43:26.610Z,7.20
2018-02-20T11:44:29.102Z,7.05
2018-02-20T11:45:31.589Z,6.80
2018-02-20T11:46:34.062Z,6.82
2018-02-20T11:47:36.544Z,7.15
2018-02-20T11:48:39.027Z,6.47
2018-02-20T11:49:41.529Z,7.50
2018-02-20T11:50:44.021Z,6.72
2018-02-20T11:51:46.502Z,6.78
2018-02-20T11:52:48.976Z,6.68
2018-02-20T11:53:51.452Z,7.00
2018-02-20T11:54:54.008Z,6.75
2018-02-20T11:55:56.492Z,6.82
2018-02-20T11:56:58.981Z,7.07
2018-02-20T11:58:01.455Z,6.55
2018-02-20T11:59:03.946Z,6.37
2018-02-20T12:00:06.428Z,6.60
2018-02-20T12:01:08.903Z,5.68
2018-02-20T12:02:11.378Z,6.68
2018-02-20T12:03:13.860Z,6.20
2018-02-20T12:04:16.350Z,6.50
2018-02-20T12:05:18.843Z,6.57
2018-02-20T12:06:21.334Z,6.03
2018-02-20T12:07:23.821Z,6.32
2018-02-20T12:08:26.315Z,6.80
2018-02-20T12:09:28.813Z,6.50
2018-02-20T12:10:31.306Z,6.20
2018-02-20T12:11:33.792Z,5.72
2018-02-20T12:12:36.264Z,6.00
2018-02-20T12:13:38.748Z,6.37
2018-02-20T12:14:41.256Z,7.18
2018-02-20T12:15:43.766Z,6.40
2018-02-20T12:16:46.255Z,6.28
2018-02-20T12:17:48.741Z,6.60
2018-02-20T12:18:51.233Z,6.18
2018-02-20T12:19:53.707Z,6.32
2018-02-20T12:20:56.193Z,6.05
2018-02-20T12:21:58.669Z,6.47
2018-02-20T12:23:01.142Z,6.22
2018-02-20T12:24:03.641Z,6.20
2018-02-20T12:25:06.111Z,5.80
2018-02-20T12:26:08.588Z,5.97
2018-02-20T12:27:11.060Z,5.70
2018-02-20T12:28:13.555Z,5.55
2018-02-20T12:29:16.046Z,6.32
2018-02-20T12:30:18.542Z,5.35
2018-02-20T12:31:21.019Z,5.85
2018-02-20T12:32:23.514Z,6.00
2018-02-20T12:33:26.006Z,5.62
2018-02-20T12:34:28.493Z,5.28
2018-02-20T12:35:30.975Z,5.87
2018-02-20T12:36:33.451Z,5.10
2018-02-20T12:37:35.930Z,5.47
2018-02-20T12:38:38.419Z,5.43
2018-02-20T12:39:40.909Z,5.62
2018-02-20T12:40:43.395Z,5.20
2018-02-20T12:41:45.871Z,5.28
2018-02-20T12:42:48.352Z,5.65
2018-02-20T12:43:50.833Z,5.95
2018-02-20T12:44:53.313Z,5.80
2018-02-20T12:45:55.779Z,5.53
2018-02-20T12:46:58.243Z,5.20
2018-02-20T12:48:00.780Z,5.57
2018-02-20T12:49:03.233Z,5.12
2018-02-20T12:50:05.801Z,5.15
2018-02-20T12:51:08.280Z,5.30
2018-02-20T12:52:10.761Z,5.07
2018-02-20T12:53:13.266Z,5.70
2018-02-20T12:54:15.835Z,5.57
2018-02-20T12:55:18.352Z,5.33
2018-02-20T12:56:20.830Z,5.30
2018-02-20T12:57:23.317Z,5.37
2018-02-20T12:58:25.807Z,4.57
2018-02-20T12:59:28.275Z,4.53
2018-02-20T13:00:30.769Z,4.78
2018-02-20T13:01:33.253Z,5.57
2018-02-20T13:02:35.733Z,5.37
2018-02-20T13:03:38.203Z,4.83
2018-02-20T13:04:40.685Z,5.33
2018-02-20T13:05:43.179Z,5.17
2018-02-20T13:06:45.655Z,4.83
2018-02-20T13:07:48.133Z,4.97
2018-02-20T13:08:50.614Z,4.60
2018-02-20T13:09:53.083Z,4.73
2018-02-20T13:10:55.590Z,5.10
2018-02-20T13:11:58.093Z,4.13
2018-02-20T13:13:00.602Z,4.90
2018-02-20T13:14:03.142Z,4.70
2018-02-20T13:15:05.612Z,4.80
2018-02-20T13:16:08.079Z,5.00
2018-02-20T13:17:10.558Z,4.63
2018-02-20T13:18:13.033Z,5.30
2018-02-20T13:19:15.504Z,5.00
2018-02-20T13:20:17.971Z,4.07
2018-02-20T13:21:20.484Z,5.33
2018-02-20T13:22:22.946Z,5.13
2018-02-20T13:23:25.425Z,5.30
2018-02-20T13:24:27.916Z,4.87
2018-02-20T13:25:30.384Z,5.30
2018-02-20T13:26:32.847Z,4.83
2018-02-20T13:27:35.330Z,4.93
2018-02-20T13:28:37.803Z,4.67
2018-02-20T13:29:40.272Z,5.20
2018-02-20T13:30:42.761Z,5.17
2018-02-20T13:31:45.232Z,4.60
2018-02-20T13:32:47.700Z,4.77
2018-02-20T13:33:50.167Z,4.93
2018-02-20T13:34:52.637Z,4.87
2018-02-20T13:35:55.122Z,4.77
2018-02-20T13:36:57.586Z,4.60
2018-02-20T13:38:00.056Z,4.70
2018-02-20T13:39:02.536Z,5.07
2018-02-20T13:40:05.018Z,4.70
2018-02-20T13:41:07.505Z,4.73
2018-02-20T13:42:09.971Z,4.83
2018-02-20T13:43:12.439Z,4.80
2018-02-20T13:44:14.907Z,4.50
2018-02-20T13:45:17.371Z,4.83
2018-02-20T13:46:19.849Z,4.37
2018-02-20T13:47:22.321Z,5.30
2018-02-20T13:48:24.805Z,4.37
2018-02-20T13:49:27.282Z,4.17
2018-02-20T13:50:29.750Z,4.90
2018-02-20T13:51:32.237Z,4.60
2018-02-20T13:52:34.715Z,4.63
2018-02-20T13:53:37.197Z,4.37
2018-02-20T13:54:39.715Z,4.00
2018-02-20T13:55:42.201Z,4.33
2018-02-20T13:56:44.689Z,4.67
2018-02-20T13:57:47.187Z,4.30
2018-02-20T13:58:49.666Z,4.03
2018-02-20T13:59:52.139Z,4.70
2018-02-20T14:00:54.621Z,4.10
2018-02-20T14:01:57.098Z,4.00
2018-02-20T14:02:59.583Z,4.50
2018-02-20T14:04:02.073Z,4.20
2018-02-20T14:05:04.542Z,4.70
2018-02-20T14:06:07.010Z,4.07
2018-02-20T14:07:09.483Z,4.10
2018-02-20T14:08:11.956Z,4.80
2018-02-20T14:09:14.442Z,4.80
2018-02-20T14:10:16.926Z,4.40
2018-02-20T14:11:19.416Z,4.23
2018-02-20T14:12:21.904Z,4.03
2018-02-20T14:13:24.389Z,4.17
2018-02-20T14:14:26.920Z,4.47
2018-02-20T14:15:29.395Z,3.97
2018-02-20T14:16:31.864Z,3.83
2018-02-20T14:17:34.341Z,4.33
2018-02-20T14:18:36.817Z,4.43
2018-02-20T14:19:39.283Z,3.90
2018-02-20T14:20:41.775Z,4.50
2018-02-20T14:21:44.262Z,4.17
2018-02-20T14:22:46.841Z,4.03
2018-02-20T14:23:49.335Z,4.20
2018-02-20T14:24:51.806Z,4.47
2018-02-20T14:25:54.532Z,4.00
2018-02-20T14:26:57.239Z,4.17
2018-02-20T14:27:59.717Z,4.00
2018-02-20T14:29:02.194Z,4.03
2018-02-20T14:30:04.724Z,4.13
2018-02-20T14:31:07.187Z,4.10
2018-02-20T14:32:09.662Z,3.40
2018-02-20T14:33:12.150Z,3.73
2018-02-20T14:34:14.634Z,3.57
2018-02-20T14:35:17.115Z,3.97
2018-02-20T14:36:19.659Z,4.10
2018-02-20T14:37:22.140Z,3.90
2018-02-20T14:38:24.676Z,3.73
2018-02-20T14:39:27.147Z,3.00
2018-02-20T14:40:29.639Z,3.80
2018-02-20T14:41:32.119Z,3.90
2018-02-20T14:42:34.827Z,4.07
2018-02-20T14:43:37.478Z,3.50
2018-02-20T14:44:39.989Z,4.20
2018-02-20T14:45:42.488Z,3.63
2018-02-20T14:46:45.067Z,3.97
2018-02-20T14:47:47.536Z,4.50
2018-02-20T14:48:50.015Z,3.97
2018-02-20T14:49:52.528Z,4.10
2018-02-20T14:50:55.178Z,3.43
2018-02-20T14:51:57.856Z,4.00
2018-02-20T14:53:00.376Z,4.07
2018-02-20T14:54:02.966Z,3.50